Time;durP1;ratioP1;P1;durP2;ratioP2;P2;SDS_P1;SDS_P2;PMS_P1;PMS_P2;Temp;Humidity;BMP_temperature;BMP_pressure;BME280_temperature;BME280_humidity;BME280_pressure;Samples;Min_cycle;Max_cycle;Signal;HPM_P1;HPM_P2
2024/03/01 00:01:11;;;;;;;20.98;12.95;;;;;;;;;;2067644;28;20512;-62
2024/03/01 00:02:30;;;;;;;20.05;13.23;;;;;;;;;;2068412;28;20033;-63
2024/03/01 00:03:49;;;;;;;24.15;13.25;;;;;;;;;;2069062;28;20029;-63
2024/03/01 00:05:08;;;;;;;17.88;12.20;;;;;;;;;;2070260;28;20438;-63
2024/03/01 00:06:27;;;;;;;23.13;13.48;;;;;;;;;;2069227;28;20130;-63
2024/03/01 00:07:45;;;;;;;19.10;13.50;;;;;;;;;;2067612;28;20065;-63
2024/03/01 00:09:04;;;;;;;21.48;13.45;;;;;;;;;;2068225;28;20066;-63
2024/03/01 00:10:24;;;;;;;27.02;14.32;;;;;;;;;;2067156;28;20030;-63
2024/03/01 00:11:43;;;;;;;24.63;12.77;;;;;;;;;;2068679;28;20515;-68
2024/03/01 00:13:02;;;;;;;22.58;12.70;;;;;;;;;;2070402;28;20108;-63
2024/03/01 00:14:21;;;;;;;19.15;13.30;;;;;;;;;;2070458;28;20038;-63
2024/03/01 00:15:40;;;;;;;19.35;13.07;;;;;;;;;;2070375;28;20042;-63
2024/03/01 00:16:59;;;;;;;26.90;11.93;;;;;;;;;;2068986;28;20104;-63
2024/03/01 00:18:18;;;;;;;19.52;13.38;;;;;;;;;;2072425;28;20038;-63
2024/03/01 00:19:37;;;;;;;21.38;14.07;;;;;;;;;;2069656;28;20030;-63
2024/03/01 00:20:56;;;;;;;22.05;13.43;;;;;;;;;;2069036;28;20030;-64
2024/03/01 00:22:15;;;;;;;23.00;13.82;;;;;;;;;;2067789;28;20053;-63
2024/03/01 00:23:34;;;;;;;24.30;14.90;;;;;;;;;;2070074;28;20326;-63
2024/03/01 00:24:54;;;;;;;20.65;12.77;;;;;;;;;;2069797;28;20030;-63
2024/03/01 00:26:13;;;;;;;23.27;13.38;;;;;;;;;;2069815;28;20061;-63
2024/03/01 00:27:32;;;;;;;21.90;13.93;;;;;;;;;;2067853;28;20408;-63
2024/03/01 00:28:51;;;;;;;26.20;13.70;;;;;;;;;;2071082;28;20034;-63
2024/03/01 00:30:10;;;;;;;20.25;12.32;;;;;;;;;;2069685;28;20030;-64
2024/03/01 00:31:29;;;;;;;22.30;13.43;;;;;;;;;;2071135;28;20479;-63
2024/03/01 00:32:48;;;;;;;24.15;13.75;;;;;;;;;;2070689;28;20483;-63
2024/03/01 00:34:07;;;;;;;23.70;13.85;;;;;;;;;;2069725;28;20120;-63
2024/03/01 00:35:26;;;;;;;25.13;13.95;;;;;;;;;;2069380;28;20034;-63
2024/03/01 00:36:45;;;;;;;24.23;13.30;;;;;;;;;;2070543;28;20030;-63
2024/03/01 00:38:04;;;;;;;28.52;14.20;;;;;;;;;;2070182;28;20460;-63
2024/03/01 00:39:23;;;;;;;22.98;14.13;;;;;;;;;;2068835;28;20026;-63
2024/03/01 00:40:42;;;;;;;20.63;13.65;;;;;;;;;;2069774;28;20050;-63
2024/03/01 00:42:01;;;;;;;23.35;13.48;;;;;;;;;;2070026;28;20483;-63
2024/03/01 00:43:20;;;;;;;21.60;13.15;;;;;;;;;;2070872;28;20026;-62
2024/03/01 00:44:39;;;;;;;25.13;15.30;;;;;;;;;;2069522;28;20022;-63
2024/03/01 00:45:58;;;;;;;22.98;13.98;;;;;;;;;;2069484;28;20057;-63
2024/03/01 00:47:17;;;;;;;21.10;13.27;;;;;;;;;;2069124;28;20431;-63
2024/03/01 00:48:36;;;;;;;21.35;13.70;;;;;;;;;;2070098;28;20407;-63
2024/03/01 00:49:55;;;;;;;21.90;14.02;;;;;;;;;;2070294;28;20109;-63
2024/03/01 00:51:14;;;;;;;23.77;13.25;;;;;;;;;;2068583;28;20546;-63
2024/03/01 00:52:32;;;;;;;26.13;13.52;;;;;;;;;;2069039;28;20483;-63
2024/03/01 00:53:51;;;;;;;25.13;14.35;;;;;;;;;;2069780;28;20042;-63
2024/03/01 00:55:10;;;;;;;21.67;14.52;;;;;;;;;;2069424;28;20030;-63
2024/03/01 00:56:29;;;;;;;21.27;13.90;;;;;;;;;;2068507;28;20029;-63
2024/03/01 00:57:48;;;;;;;22.20;13.57;;;;;;;;;;2069282;28;20030;-62
2024/03/01 00:59:07;;;;;;;23.10;13.07;;;;;;;;;;2069456;28;20040;-63
2024/03/01 01:00:26;;;;;;;23.10;14.35;;;;;;;;;;2069860;28;20035;-63
2024/03/01 01:01:45;;;;;;;23.48;14.70;;;;;;;;;;2068109;28;20084;-63
2024/03/01 01:03:05;;;;;;;24.52;14.75;;;;;;;;;;2069517;28;20026;-63
2024/03/01 01:04:24;;;;;;;20.73;13.50;;;;;;;;;;2072226;28;20034;-63
2024/03/01 01:05:43;;;;;;;20.30;13.43;;;;;;;;;;2070733;28;20453;-63
2024/03/01 01:07:02;;;;;;;27.38;14.25;;;;;;;;;;2069095;28;20045;-63
2024/03/01 01:08:21;;;;;;;24.27;13.68;;;;;;;;;;2069223;28;20073;-64
2024/03/01 01:09:40;;;;;;;24.52;14.00;;;;;;;;;;2069572;28;20026;-63
2024/03/01 01:10:58;;;;;;;22.35;14.30;;;;;;;;;;2066556;28;20472;-63
2024/03/01 01:12:17;;;;;;;22.25;13.73;;;;;;;;;;2065482;28;20026;-63
2024/03/01 01:13:36;;;;;;;27.17;14.50;;;;;;;;;;2068988;28;20046;-63
2024/03/01 01:14:55;;;;;;;23.75;14.95;;;;;;;;;;2068791;28;20030;-64
2024/03/01 01:16:14;;;;;;;27.60;15.20;;;;;;;;;;2070414;28;20053;-62
2024/03/01 01:17:33;;;;;;;26.58;15.38;;;;;;;;;;2069821;28;20059;-62
2024/03/01 01:18:53;;;;;;;24.08;14.70;;;;;;;;;;2068831;28;20022;-62
2024/03/01 01:20:12;;;;;;;28.83;15.43;;;;;;;;;;2070549;28;20022;-62
2024/03/01 01:21:32;;;;;;;24.13;14.15;;;;;;;;;;2070045;28;20030;-63
2024/03/01 01:22:51;;;;;;;26.95;14.65;;;;;;;;;;2072917;28;20038;-62
2024/03/01 01:24:10;;;;;;;23.40;14.95;;;;;;;;;;2070426;28;20487;-65
2024/03/01 01:25:29;;;;;;;26.33;15.18;;;;;;;;;;2069523;28;20026;-62
2024/03/01 01:26:48;;;;;;;25.98;14.43;;;;;;;;;;2068609;28;20140;-62
2024/03/01 01:28:07;;;;;;;25.70;14.43;;;;;;;;;;2070941;28;20041;-62
2024/03/01 01:29:26;;;;;;;26.23;15.57;;;;;;;;;;2070198;28;20026;-62
2024/03/01 01:30:46;;;;;;;24.98;14.98;;;;;;;;;;2069002;28;20034;-62
2024/03/01 01:32:04;;;;;;;26.65;15.07;;;;;;;;;;2069607;28;20449;-62
2024/03/01 01:33:23;;;;;;;24.60;14.18;;;;;;;;;;2069200;28;20474;-62
2024/03/01 01:34:42;;;;;;;25.10;13.90;;;;;;;;;;2071816;28;20022;-61
2024/03/01 01:36:01;;;;;;;25.15;14.45;;;;;;;;;;2069647;28;20030;-62
2024/03/01 01:37:20;;;;;;;27.77;14.63;;;;;;;;;;2068174;28;20113;-62
2024/03/01 01:38:39;;;;;;;26.00;14.60;;;;;;;;;;2069327;28;20034;-62
2024/03/01 01:39:58;;;;;;;26.55;14.38;;;;;;;;;;2069719;28;20109;-62
2024/03/01 01:41:16;;;;;;;27.88;14.27;;;;;;;;;;2069661;28;20059;-62
2024/03/01 01:42:35;;;;;;;26.02;15.40;;;;;;;;;;2069236;28;20042;-62
2024/03/01 01:43:55;;;;;;;27.67;15.18;;;;;;;;;;2067934;28;20589;-62
2024/03/01 01:45:13;;;;;;;26.60;15.13;;;;;;;;;;2070611;28;20530;-63
2024/03/01 01:46:33;;;;;;;26.02;14.35;;;;;;;;;;2070167;28;20112;-63
2024/03/01 01:47:52;;;;;;;26.65;14.68;;;;;;;;;;2069231;28;20038;-62
2024/03/01 01:49:11;;;;;;;33.67;15.52;;;;;;;;;;2068764;28;20030;-62
2024/03/01 01:50:30;;;;;;;25.83;15.55;;;;;;;;;;2066740;28;20425;-62
2024/03/01 01:51:50;;;;;;;23.90;15.77;;;;;;;;;;2070171;28;20486;-62
2024/03/01 01:53:09;;;;;;;29.88;15.68;;;;;;;;;;2068999;28;20034;-62
2024/03/01 01:54:28;;;;;;;27.60;15.15;;;;;;;;;;2068302;28;20065;-62
2024/03/01 01:55:47;;;;;;;30.08;15.43;;;;;;;;;;2068848;28;20030;-62
2024/03/01 01:57:06;;;;;;;24.35;15.07;;;;;;;;;;2069501;28;20034;-62
2024/03/01 01:58:26;;;;;;;29.38;14.93;;;;;;;;;;2068808;28;20029;-62
2024/03/01 01:59:45;;;;;;;29.02;15.15;;;;;;;;;;2068916;28;20030;-64
2024/03/01 02:01:07;;;;;;;27.08;14.85;;;;;;;;;;2069867;28;20034;-62
2024/03/01 02:02:27;;;;;;;28.90;15.85;;;;;;;;;;2068429;28;20097;-62
2024/03/01 02:03:47;;;;;;;31.38;15.35;;;;;;;;;;2068130;28;20062;-63
2024/03/01 02:05:06;;;;;;;32.72;16.13;;;;;;;;;;2070680;28;20558;-63
2024/03/01 02:06:24;;;;;;;31.65;16.00;;;;;;;;;;2067847;28;20087;-62
2024/03/01 02:07:43;;;;;;;30.02;15.85;;;;;;;;;;2069719;28;20038;-62
2024/03/01 02:09:12;;;;;;;28.98;14.98;;;;;;;;;;2069594;28;20038;-63
2024/03/01 02:10:32;;;;;;;27.20;15.13;;;;;;;;;;2069356;28;20034;-63
2024/03/01 02:11:51;;;;;;;28.83;15.48;;;;;;;;;;2068478;28;20034;-63
2024/03/01 02:13:16;;;;;;;26.52;14.93;;;;;;;;;;2069122;28;20030;-63
2024/03/01 02:14:35;;;;;;;27.75;15.68;;;;;;;;;;2069769;28;20042;-63
2024/03/01 02:15:54;;;;;;;29.23;15.45;;;;;;;;;;2070621;28;20038;-62
2024/03/01 02:17:14;;;;;;;24.95;15.35;;;;;;;;;;2068948;28;20034;-62
2024/03/01 02:18:33;;;;;;;27.35;15.10;;;;;;;;;;2067176;28;20105;-63
2024/03/01 02:19:52;;;;;;;28.42;16.33;;;;;;;;;;2068553;28;20034;-62
2024/03/01 02:21:11;;;;;;;28.38;15.95;;;;;;;;;;2070381;28;20065;-62
2024/03/01 02:22:30;;;;;;;31.35;15.63;;;;;;;;;;2070393;28;20098;-62
2024/03/01 02:23:49;;;;;;;27.80;14.80;;;;;;;;;;2067267;28;20022;-63
2024/03/01 02:25:08;;;;;;;25.08;15.52;;;;;;;;;;2068738;28;20030;-62
2024/03/01 02:26:27;;;;;;;30.50;15.80;;;;;;;;;;2070106;28;20026;-63
2024/03/01 02:27:47;;;;;;;28.30;15.55;;;;;;;;;;2069880;28;20499;-62
2024/03/01 02:29:06;;;;;;;34.63;16.30;;;;;;;;;;2069795;28;20038;-62
2024/03/01 02:30:25;;;;;;;30.10;16.33;;;;;;;;;;2068243;28;20426;-62
2024/03/01 02:31:44;;;;;;;30.60;16.67;;;;;;;;;;2069670;28;20038;-63
2024/03/01 02:33:03;;;;;;;30.10;15.30;;;;;;;;;;2064918;28;20589;-63
2024/03/01 02:34:22;;;;;;;26.27;15.70;;;;;;;;;;2063813;28;20038;-62
2024/03/01 02:35:41;;;;;;;29.15;15.90;;;;;;;;;;2068090;28;20044;-64
2024/03/01 02:37:00;;;;;;;30.23;16.35;;;;;;;;;;2066512;28;20108;-63
2024/03/01 02:38:19;;;;;;;33.03;16.73;;;;;;;;;;2069246;28;20026;-63
2024/03/01 02:39:37;;;;;;;28.25;16.58;;;;;;;;;;2068591;28;20030;-62
2024/03/01 02:40:56;;;;;;;30.05;16.70;;;;;;;;;;2065916;28;20161;-62
2024/03/01 02:42:16;;;;;;;29.80;16.08;;;;;;;;;;2069487;28;20421;-62
2024/03/01 02:43:35;;;;;;;35.03;17.08;;;;;;;;;;2067012;28;20040;-62
2024/03/01 02:44:54;;;;;;;28.15;15.48;;;;;;;;;;2066025;28;20038;-63
2024/03/01 02:46:12;;;;;;;30.45;16.25;;;;;;;;;;2067907;28;20026;-62
2024/03/01 02:47:31;;;;;;;34.67;16.77;;;;;;;;;;2068701;28;20022;-63
2024/03/01 02:48:51;;;;;;;33.40;16.50;;;;;;;;;;2067467;28;20038;-62
2024/03/01 02:50:10;;;;;;;32.75;15.60;;;;;;;;;;2068321;28;20026;-63
2024/03/01 02:51:29;;;;;;;30.48;16.30;;;;;;;;;;2069205;28;20030;-62
2024/03/01 02:52:47;;;;;;;31.35;16.52;;;;;;;;;;2071583;28;20097;-62
2024/03/01 02:54:07;;;;;;;34.15;16.27;;;;;;;;;;2068735;28;20046;-62
2024/03/01 02:55:26;;;;;;;32.03;17.65;;;;;;;;;;2067356;28;20026;-62
2024/03/01 02:56:45;;;;;;;26.92;15.82;;;;;;;;;;2068692;28;20078;-62
2024/03/01 02:58:04;;;;;;;31.17;16.85;;;;;;;;;;2067206;28;20474;-62
2024/03/01 02:59:23;;;;;;;30.27;16.17;;;;;;;;;;2070450;28;20033;-62
2024/03/01 03:00:43;;;;;;;35.95;17.17;;;;;;;;;;2068004;28;20038;-62
2024/03/01 03:02:01;;;;;;;30.00;16.23;;;;;;;;;;2069088;28;20496;-62
2024/03/01 03:03:20;;;;;;;30.38;16.95;;;;;;;;;;2067236;28;20027;-63
2024/03/01 03:04:39;;;;;;;31.80;15.80;;;;;;;;;;2070583;28;20030;-62
2024/03/01 03:05:58;;;;;;;30.58;16.38;;;;;;;;;;2070099;28;20105;-63
2024/03/01 03:07:17;;;;;;;27.85;16.10;;;;;;;;;;2068741;28;20067;-62
2024/03/01 03:08:36;;;;;;;28.02;15.93;;;;;;;;;;2068282;28;20484;-62
2024/03/01 03:09:55;;;;;;;35.53;17.52;;;;;;;;;;2067135;28;20046;-62
2024/03/01 03:11:18;;;;;;;29.80;16.30;;;;;;;;;;2068642;28;20109;-63
2024/03/01 03:12:38;;;;;;;31.70;16.10;;;;;;;;;;2069842;28;20364;-62
2024/03/01 03:13:57;;;;;;;33.13;17.23;;;;;;;;;;2070508;28;20045;-66
2024/03/01 03:15:17;;;;;;;33.53;17.58;;;;;;;;;;2069100;28;20034;-62
2024/03/01 03:16:36;;;;;;;26.73;15.35;;;;;;;;;;2067487;28;20121;-62
2024/03/01 03:17:55;;;;;;;35.13;16.90;;;;;;;;;;2067744;28;20457;-63
2024/03/01 03:19:14;;;;;;;36.22;17.52;;;;;;;;;;2069067;28;20034;-62
2024/03/01 03:20:35;;;;;;;30.48;16.40;;;;;;;;;;2068697;28;20482;-62
2024/03/01 03:21:53;;;;;;;30.30;16.17;;;;;;;;;;2068983;28;20030;-62
2024/03/01 03:23:12;;;;;;;30.70;16.17;;;;;;;;;;2070807;28;20025;-62
2024/03/01 03:24:31;;;;;;;30.38;16.45;;;;;;;;;;2070249;28;20026;-64
2024/03/01 03:25:50;;;;;;;30.05;15.68;;;;;;;;;;2069882;28;20030;-62
2024/03/01 03:27:09;;;;;;;30.88;16.27;;;;;;;;;;2068784;28;20018;-63
2024/03/01 03:28:28;;;;;;;29.45;16.95;;;;;;;;;;2068773;28;20026;-63
2024/03/01 03:29:47;;;;;;;32.13;16.55;;;;;;;;;;2068287;28;20408;-62
2024/03/01 03:31:05;;;;;;;26.92;14.95;;;;;;;;;;2070299;28;20033;-62
2024/03/01 03:32:25;;;;;;;27.77;16.02;;;;;;;;;;2069404;28;20101;-63
2024/03/01 03:33:45;;;;;;;31.35;16.55;;;;;;;;;;2069238;28;20042;-62
2024/03/01 03:35:04;;;;;;;32.55;16.55;;;;;;;;;;2069681;28;20034;-62
2024/03/01 03:36:23;;;;;;;34.30;17.33;;;;;;;;;;2069419;28;20041;-62
2024/03/01 03:37:41;;;;;;;31.73;15.90;;;;;;;;;;2068375;28;20116;-62
2024/03/01 03:39:01;;;;;;;31.05;15.93;;;;;;;;;;2070446;28;20144;-62
2024/03/01 03:40:20;;;;;;;33.25;16.73;;;;;;;;;;2068668;28;20030;-62
2024/03/01 03:41:40;;;;;;;32.45;16.35;;;;;;;;;;2068842;28;20026;-62
2024/03/01 03:42:59;;;;;;;35.20;17.42;;;;;;;;;;2067903;28;20018;-62
2024/03/01 03:44:18;;;;;;;29.20;16.40;;;;;;;;;;2067576;28;20033;-62
2024/03/01 03:45:38;;;;;;;36.33;17.80;;;;;;;;;;2068069;28;20395;-63
2024/03/01 03:46:56;;;;;;;31.05;16.42;;;;;;;;;;2069334;28;20037;-61
2024/03/01 03:48:16;;;;;;;32.60;17.08;;;;;;;;;;2071640;28;20475;-63
2024/03/01 03:49:36;;;;;;;32.40;17.02;;;;;;;;;;2071304;28;20026;-62
2024/03/01 03:50:56;;;;;;;33.80;16.30;;;;;;;;;;2070380;28;20030;-62
2024/03/01 03:52:15;;;;;;;31.80;16.70;;;;;;;;;;2069404;28;20038;-62
2024/03/01 03:53:34;;;;;;;35.72;17.42;;;;;;;;;;2069510;28;20515;-62
2024/03/01 03:54:53;;;;;;;42.75;17.05;;;;;;;;;;2070820;28;20042;-62
2024/03/01 03:56:12;;;;;;;35.13;17.83;;;;;;;;;;2071991;28;20042;-62
2024/03/01 03:57:32;;;;;;;35.78;17.35;;;;;;;;;;2069650;28;20030;-64
2024/03/01 03:58:51;;;;;;;31.02;16.35;;;;;;;;;;2069920;28;20042;-62
2024/03/01 04:00:14;;;;;;;39.95;17.95;;;;;;;;;;2065559;28;20026;-62
2024/03/01 04:01:33;;;;;;;35.33;17.15;;;;;;;;;;2070206;28;20022;-62
2024/03/01 04:02:52;;;;;;;32.28;16.73;;;;;;;;;;2070357;28;20034;-62
2024/03/01 04:04:11;;;;;;;31.50;16.23;;;;;;;;;;2071450;28;20060;-62
2024/03/01 04:05:30;;;;;;;37.78;19.13;;;;;;;;;;2070683;28;20029;-63
2024/03/01 04:06:49;;;;;;;36.17;16.73;;;;;;;;;;2069982;28;20116;-62
2024/03/01 04:08:09;;;;;;;34.35;17.52;;;;;;;;;;2069428;28;20034;-63
2024/03/01 04:09:28;;;;;;;37.42;18.35;;;;;;;;;;2069152;28;20038;-63
2024/03/01 04:10:47;;;;;;;36.60;19.50;;;;;;;;;;2069840;28;20498;-64
2024/03/01 04:12:07;;;;;;;40.35;19.33;;;;;;;;;;2070684;28;20126;-63
2024/03/01 04:13:26;;;;;;;40.80;19.25;;;;;;;;;;2069338;28;20025;-62
2024/03/01 04:14:45;;;;;;;33.03;17.13;;;;;;;;;;2068542;28;20042;-63
2024/03/01 04:16:06;;;;;;;38.15;19.65;;;;;;;;;;2116918;27;20492;-65
2024/03/01 04:17:28;;;;;;;40.33;18.35;;;;;;;;;;2086379;27;20037;-62
2024/03/01 04:18:47;;;;;;;44.70;18.52;;;;;;;;;;2070295;28;20511;-63
2024/03/01 04:20:06;;;;;;;38.25;18.92;;;;;;;;;;2069521;28;20140;-63
2024/03/01 04:21:25;;;;;;;37.88;19.45;;;;;;;;;;2069295;28;20089;-63
2024/03/01 04:22:44;;;;;;;40.03;19.45;;;;;;;;;;2067817;28;20038;-62
2024/03/01 04:24:09;;;;;;;33.83;18.38;;;;;;;;;;2070102;28;20034;-62
2024/03/01 04:25:28;;;;;;;34.60;18.83;;;;;;;;;;2069487;28;20577;-63
2024/03/01 04:26:47;;;;;;;41.83;19.30;;;;;;;;;;2070902;28;20026;-62
2024/03/01 04:28:06;;;;;;;39.40;19.05;;;;;;;;;;2068268;28;20407;-62
2024/03/01 04:29:27;;;;;;;39.90;20.17;;;;;;;;;;2070116;28;20109;-62
2024/03/01 04:30:46;;;;;;;39.30;18.63;;;;;;;;;;2071340;28;20057;-62
2024/03/01 04:32:07;;;;;;;42.35;21.60;;;;;;;;;;2070713;28;20030;-63
2024/03/01 04:33:26;;;;;;;39.33;19.27;;;;;;;;;;2069498;28;20109;-62
2024/03/01 04:34:45;;;;;;;41.65;19.60;;;;;;;;;;2067671;28;20538;-62
2024/03/01 04:36:04;;;;;;;45.80;20.90;;;;;;;;;;2069798;28;20483;-62
2024/03/01 04:37:23;;;;;;;39.83;20.35;;;;;;;;;;2069283;28;20651;-62
2024/03/01 04:38:41;;;;;;;41.78;20.77;;;;;;;;;;2069060;28;20046;-63
2024/03/01 04:40:01;;;;;;;42.03;20.92;;;;;;;;;;2069750;28;20030;-62
2024/03/01 04:41:20;;;;;;;39.78;19.02;;;;;;;;;;2071124;28;20038;-62
2024/03/01 04:42:41;;;;;;;45.05;21.30;;;;;;;;;;2070158;28;20034;-62
2024/03/01 04:44:00;;;;;;;43.65;21.02;;;;;;;;;;2068643;28;20050;-62
2024/03/01 04:45:19;;;;;;;39.33;20.05;;;;;;;;;;2070243;28;20022;-62
2024/03/01 04:46:39;;;;;;;39.47;19.17;;;;;;;;;;2070920;28;20026;-62
2024/03/01 04:47:57;;;;;;;38.55;18.85;;;;;;;;;;2069917;28;20026;-63
2024/03/01 04:49:17;;;;;;;44.63;21.00;;;;;;;;;;2069982;28;20037;-63
2024/03/01 04:50:36;;;;;;;38.58;19.80;;;;;;;;;;2068271;28;20033;-62
2024/03/01 04:51:55;;;;;;;37.28;20.45;;;;;;;;;;2067860;28;20041;-63
2024/03/01 04:53:14;;;;;;;40.28;20.40;;;;;;;;;;2069468;28;20033;-63
2024/03/01 04:54:33;;;;;;;38.70;20.00;;;;;;;;;;2070210;28;20387;-63
2024/03/01 04:55:52;;;;;;;37.90;20.63;;;;;;;;;;2071234;28;20030;-62
2024/03/01 04:57:11;;;;;;;38.70;20.20;;;;;;;;;;2068581;28;20033;-62
2024/03/01 04:58:30;;;;;;;34.90;19.27;;;;;;;;;;2068561;28;20037;-62
2024/03/01 04:59:49;;;;;;;41.15;19.13;;;;;;;;;;2068113;28;20023;-63
2024/03/01 05:01:10;;;;;;;41.83;18.52;;;;;;;;;;2069530;28;20026;-63
2024/03/01 05:02:29;;;;;;;38.88;18.90;;;;;;;;;;2071320;28;20047;-63
2024/03/01 05:03:49;;;;;;;35.60;18.40;;;;;;;;;;2070911;28;20030;-64
2024/03/01 05:05:09;;;;;;;29.90;17.42;;;;;;;;;;2070667;28;20105;-62
2024/03/01 05:06:27;;;;;;;36.08;19.27;;;;;;;;;;2068610;28;20038;-63
2024/03/01 05:07:48;;;;;;;32.20;16.98;;;;;;;;;;2067980;28;20507;-62
2024/03/01 05:09:07;;;;;;;39.28;18.90;;;;;;;;;;2070150;28;20026;-62
2024/03/01 05:10:26;;;;;;;35.38;18.15;;;;;;;;;;2071255;28;20030;-62
2024/03/01 05:11:45;;;;;;;38.00;19.33;;;;;;;;;;2068660;28;20030;-66
2024/03/01 05:13:06;;;;;;;29.65;18.40;;;;;;;;;;2068461;28;20061;-62
2024/03/01 05:14:25;;;;;;;39.17;19.20;;;;;;;;;;2068854;28;20034;-62
2024/03/01 05:15:45;;;;;;;34.92;18.13;;;;;;;;;;2069215;28;20022;-63
2024/03/01 05:17:04;;;;;;;34.92;18.25;;;;;;;;;;2070030;28;20030;-63
2024/03/01 05:18:23;;;;;;;35.33;19.08;;;;;;;;;;2065910;28;20176;-62
2024/03/01 05:19:42;;;;;;;34.65;19.08;;;;;;;;;;2068033;28;20058;-62
2024/03/01 05:21:01;;;;;;;40.15;19.20;;;;;;;;;;2067765;28;20601;-63
2024/03/01 05:22:23;;;;;;;33.08;19.13;;;;;;;;;;2068707;28;20022;-62
2024/03/01 05:23:42;;;;;;;34.45;18.52;;;;;;;;;;2069935;28;20034;-62
2024/03/01 05:25:01;;;;;;;37.50;18.58;;;;;;;;;;2067619;28;20054;-62
2024/03/01 05:26:20;;;;;;;35.67;18.63;;;;;;;;;;2067456;28;20028;-62
2024/03/01 05:27:40;;;;;;;41.85;19.52;;;;;;;;;;2068841;28;20022;-62
2024/03/01 05:28:59;;;;;;;37.67;18.85;;;;;;;;;;2069997;28;20537;-63
2024/03/01 05:30:23;;;;;;;39.67;19.67;;;;;;;;;;2069981;28;20550;-63
2024/03/01 05:31:47;;;;;;;36.30;18.48;;;;;;;;;;2068529;28;20044;-63
2024/03/01 05:33:09;;;;;;;39.55;19.42;;;;;;;;;;2068758;28;20137;-63
2024/03/01 05:34:28;;;;;;;37.08;19.65;;;;;;;;;;2071749;28;20063;-63
2024/03/01 05:35:47;;;;;;;37.10;20.42;;;;;;;;;;2068915;28;20026;-63
2024/03/01 05:37:06;;;;;;;32.20;19.02;;;;;;;;;;2068535;28;20026;-63
2024/03/01 05:38:25;;;;;;;41.28;19.77;;;;;;;;;;2068429;28;20030;-63
2024/03/01 05:39:44;;;;;;;37.65;20.60;;;;;;;;;;2070360;28;20030;-62
2024/03/01 05:41:03;;;;;;;44.10;19.55;;;;;;;;;;2069534;28;20030;-62
2024/03/01 05:42:22;;;;;;;36.53;19.73;;;;;;;;;;2067764;28;20101;-62
2024/03/01 05:43:41;;;;;;;35.22;19.13;;;;;;;;;;2067881;28;20034;-63
2024/03/01 05:45:00;;;;;;;32.08;18.00;;;;;;;;;;2069419;28;20429;-63
2024/03/01 05:46:21;;;;;;;36.10;20.10;;;;;;;;;;2070622;28;20029;-63
2024/03/01 05:47:42;;;;;;;37.42;20.63;;;;;;;;;;2068380;28;20038;-65
2024/03/01 05:49:01;;;;;;;35.28;20.10;;;;;;;;;;2068283;28;20026;-63
2024/03/01 05:50:20;;;;;;;40.30;20.63;;;;;;;;;;2068489;28;20030;-63
2024/03/01 05:51:39;;;;;;;46.05;21.10;;;;;;;;;;2070161;28;20052;-63
2024/03/01 05:52:58;;;;;;;38.97;20.75;;;;;;;;;;2069525;28;20379;-63
2024/03/01 05:54:18;;;;;;;39.45;19.67;;;;;;;;;;2070034;28;20042;-63
2024/03/01 05:55:36;;;;;;;37.03;19.88;;;;;;;;;;2067947;28;20034;-63
2024/03/01 05:56:56;;;;;;;38.30;20.38;;;;;;;;;;2068276;28;20368;-63
2024/03/01 05:58:15;;;;;;;39.38;19.90;;;;;;;;;;2068987;28;20022;-63
2024/03/01 05:59:34;;;;;;;35.28;19.60;;;;;;;;;;2069091;28;20030;-63
2024/03/01 06:00:54;;;;;;;34.13;19.50;;;;;;;;;;2071011;28;20034;-63
2024/03/01 06:02:13;;;;;;;37.30;20.77;;;;;;;;;;2069141;28;20025;-63
2024/03/01 06:03:32;;;;;;;35.80;21.02;;;;;;;;;;2066692;28;20035;-63
2024/03/01 06:04:52;;;;;;;38.42;19.45;;;;;;;;;;2069206;28;20034;-63
2024/03/01 06:06:14;;;;;;;37.15;19.77;;;;;;;;;;2070639;28;20026;-63
2024/03/01 06:07:34;;;;;;;39.92;20.33;;;;;;;;;;2070432;28;20057;-63
2024/03/01 06:08:53;;;;;;;40.95;20.95;;;;;;;;;;2068034;28;20026;-63
2024/03/01 06:10:12;;;;;;;42.83;20.60;;;;;;;;;;2068652;28;20034;-63
2024/03/01 06:11:31;;;;;;;37.92;20.83;;;;;;;;;;2068552;28;20030;-63
2024/03/01 06:12:50;;;;;;;43.33;20.15;;;;;;;;;;2070047;28;20459;-63
2024/03/01 06:14:11;;;;;;;36.58;19.83;;;;;;;;;;2069599;28;20034;-63
2024/03/01 06:15:30;;;;;;;34.08;20.20;;;;;;;;;;2068687;28;20034;-63
2024/03/01 06:16:49;;;;;;;37.25;19.58;;;;;;;;;;2068193;28;20522;-64
2024/03/01 06:18:08;;;;;;;38.88;20.20;;;;;;;;;;2069745;28;20026;-63
2024/03/01 06:19:27;;;;;;;35.40;20.25;;;;;;;;;;2070007;28;20030;-63
2024/03/01 06:20:46;;;;;;;37.55;20.80;;;;;;;;;;2067829;28;20113;-62
2024/03/01 06:22:06;;;;;;;34.33;19.50;;;;;;;;;;2068005;28;20054;-63
2024/03/01 06:23:28;;;;;;;41.65;20.15;;;;;;;;;;2068435;28;20030;-63
2024/03/01 06:24:47;;;;;;;35.90;20.27;;;;;;;;;;2069299;28;20022;-63
2024/03/01 06:26:06;;;;;;;40.72;20.00;;;;;;;;;;2068927;28;20026;-62
2024/03/01 06:27:25;;;;;;;39.13;19.52;;;;;;;;;;2069346;28;20026;-63
2024/03/01 06:28:44;;;;;;;36.33;19.27;;;;;;;;;;2068986;28;20113;-62
2024/03/01 06:30:03;;;;;;;35.88;19.95;;;;;;;;;;2070378;28;20433;-63
2024/03/01 06:31:21;;;;;;;36.92;20.52;;;;;;;;;;2068443;28;20042;-63
2024/03/01 06:32:43;;;;;;;34.50;19.88;;;;;;;;;;2067736;28;20026;-63
2024/03/01 06:34:02;;;;;;;38.50;20.90;;;;;;;;;;2068559;28;20061;-63
2024/03/01 06:35:21;;;;;;;33.60;19.38;;;;;;;;;;2069439;28;20041;-62
2024/03/01 06:36:40;;;;;;;39.40;21.20;;;;;;;;;;2069954;28;20038;-63
2024/03/01 06:38:00;;;;;;;42.17;20.85;;;;;;;;;;2068324;28;20418;-63
2024/03/01 06:39:18;;;;;;;37.90;18.80;;;;;;;;;;2068178;28;20452;-63
2024/03/01 06:40:37;;;;;;;35.97;18.95;;;;;;;;;;2068588;28;20031;-63
2024/03/01 06:41:56;;;;;;;35.22;18.48;;;;;;;;;;2068515;28;20490;-63
2024/03/01 06:43:15;;;;;;;38.83;19.10;;;;;;;;;;2070494;28;20021;-63
2024/03/01 06:44:34;;;;;;;37.88;18.20;;;;;;;;;;2068248;28;20029;-63
2024/03/01 06:45:53;;;;;;;36.05;18.58;;;;;;;;;;2067919;28;20019;-63
2024/03/01 06:47:12;;;;;;;38.67;18.98;;;;;;;;;;2069145;28;20022;-63
2024/03/01 06:48:31;;;;;;;40.00;19.45;;;;;;;;;;2070833;28;20026;-63
2024/03/01 06:49:50;;;;;;;37.03;19.05;;;;;;;;;;2069943;28;20041;-63
2024/03/01 06:51:09;;;;;;;40.78;20.35;;;;;;;;;;2067586;28;20026;-63
2024/03/01 06:52:28;;;;;;;39.95;20.00;;;;;;;;;;2068997;28;20034;-63
2024/03/01 06:53:47;;;;;;;40.88;18.48;;;;;;;;;;2071744;28;20148;-63
2024/03/01 06:55:06;;;;;;;38.95;20.60;;;;;;;;;;2069514;28;20038;-63
2024/03/01 06:56:25;;;;;;;36.08;19.08;;;;;;;;;;2068300;28;20113;-63
2024/03/01 06:57:44;;;;;;;33.83;18.70;;;;;;;;;;2069822;28;20399;-63
2024/03/01 06:59:03;;;;;;;37.40;18.75;;;;;;;;;;2069144;28;20026;-63
2024/03/01 07:00:23;;;;;;;39.35;19.08;;;;;;;;;;2069641;28;20034;-63
2024/03/01 07:01:42;;;;;;;40.42;19.60;;;;;;;;;;2069349;28;20405;-63
2024/03/01 07:03:02;;;;;;;38.20;18.60;;;;;;;;;;2066359;28;20034;-69
2024/03/01 07:04:21;;;;;;;38.28;18.50;;;;;;;;;;2071491;28;20028;-62
2024/03/01 07:05:40;;;;;;;40.78;19.77;;;;;;;;;;2070459;28;20027;-63
2024/03/01 07:06:59;;;;;;;40.47;20.00;;;;;;;;;;2067685;28;20141;-63
2024/03/01 07:08:18;;;;;;;36.88;19.48;;;;;;;;;;2068464;28;20042;-63
2024/03/01 07:09:37;;;;;;;39.45;18.25;;;;;;;;;;2069756;28;20037;-64
2024/03/01 07:10:58;;;;;;;37.25;18.73;;;;;;;;;;2069401;28;20399;-63
2024/03/01 07:12:18;;;;;;;33.40;18.77;;;;;;;;;;2068399;28;20113;-63
2024/03/01 07:13:37;;;;;;;36.05;18.95;;;;;;;;;;2068974;28;20034;-63
2024/03/01 07:14:56;;;;;;;34.30;18.00;;;;;;;;;;2067879;28;20030;-62
2024/03/01 07:16:14;;;;;;;38.47;19.65;;;;;;;;;;2069741;28;20035;-63
2024/03/01 07:17:34;;;;;;;35.55;19.23;;;;;;;;;;2068104;28;20029;-63
2024/03/01 07:18:53;;;;;;;40.00;20.42;;;;;;;;;;2068808;28;20034;-62
2024/03/01 07:20:12;;;;;;;35.70;17.70;;;;;;;;;;2068480;28;20109;-62
2024/03/01 07:21:31;;;;;;;41.50;19.25;;;;;;;;;;2068268;28;20117;-62
2024/03/01 07:22:50;;;;;;;40.55;19.92;;;;;;;;;;2070411;28;20022;-62
2024/03/01 07:24:09;;;;;;;34.05;18.25;;;;;;;;;;2067099;28;20041;-64
2024/03/01 07:25:28;;;;;;;37.47;18.85;;;;;;;;;;2065874;28;20205;-63
2024/03/01 07:26:47;;;;;;;34.67;18.05;;;;;;;;;;2068681;28;20491;-62
2024/03/01 07:28:06;;;;;;;38.28;19.17;;;;;;;;;;2069687;28;20065;-62
2024/03/01 07:29:25;;;;;;;40.90;18.90;;;;;;;;;;2070096;28;20439;-63
2024/03/01 07:30:44;;;;;;;36.83;18.67;;;;;;;;;;2069676;28;20216;-63
2024/03/01 07:32:02;;;;;;;41.15;19.52;;;;;;;;;;2067606;28;20030;-63
2024/03/01 07:33:22;;;;;;;35.63;18.63;;;;;;;;;;2068682;28;20082;-63
2024/03/01 07:34:41;;;;;;;41.05;18.95;;;;;;;;;;2068561;28;20491;-63
2024/03/01 07:36:00;;;;;;;42.10;19.38;;;;;;;;;;2068306;28;20039;-63
2024/03/01 07:37:19;;;;;;;35.30;18.95;;;;;;;;;;2068306;28;20109;-63
2024/03/01 07:38:39;;;;;;;47.22;19.48;;;;;;;;;;2070045;28;20038;-63
2024/03/01 07:39:57;;;;;;;42.95;20.17;;;;;;;;;;2069423;28;20034;-63
2024/03/01 07:41:18;;;;;;;40.33;19.85;;;;;;;;;;2066496;28;20025;-63